Time;durP1;ratioP1;P1;durP2;ratioP2;P2;SDS_P1;SDS_P2;PMS_P1;PMS_P2;Temp;Humidity;BMP_temperature;BMP_pressure;BME280_temperature;BME280_humidity;BME280_pressure;Samples;Min_cycle;Max_cycle;Signal;HPM_P1;HPM_P2
2022/02/16 00:02:16;;;;;;;3.58;2.88;;;;;;;4.06;91.23;99292.53;8310752;35;20247;-73
2022/02/16 00:07:21;;;;;;;3.33;2.60;;;;;;;3.88;91.39;99305.34;8311460;35;20645;-74
2022/02/16 00:12:24;;;;;;;3.40;1.90;;;;;;;3.82;91.78;99308.44;8310888;35;20476;-76
2022/02/16 00:17:28;;;;;;;5.47;3.30;;;;;;;4.27;90.81;99276.88;8312376;35;20248;-75
2022/02/16 00:22:33;;;;;;;5.68;2.50;;;;;;;3.99;91.56;99267.38;8310665;35;20249;-73
2022/02/16 00:27:36;;;;;;;4.05;2.22;;;;;;;4.11;91.05;99263.84;8324911;29;20318;-74
2022/02/16 00:32:39;;;;;;;4.13;2.88;;;;;;;4.21;91.45;99258.72;8310995;35;20165;-75
2022/02/16 00:37:45;;;;;;;2.33;2.13;;;;;;;3.85;91.63;99241.81;8311010;35;20134;-74
2022/02/16 00:42:49;;;;;;;2.10;1.90;;;;;;;4.27;90.54;99253.78;8310321;35;20607;-74
2022/02/16 00:47:52;;;;;;;3.80;2.55;;;;;;;4.32;90.47;99243.66;8331011;35;20150;-74
2022/02/16 00:52:57;;;;;;;2.50;2.30;;;;;;;4.25;91.21;99234.47;8330397;35;20466;-74
2022/02/16 00:58:06;;;;;;;2.47;2.20;;;;;;;4.28;90.69;99233.38;8309882;35;21367;-75
2022/02/16 01:03:09;;;;;;;2.30;2.10;;;;;;;4.24;90.74;99229.25;8309660;35;20959;-74
2022/02/16 01:08:14;;;;;;;3.00;2.00;;;;;;;4.21;90.85;99217.03;8330234;35;20237;-74
2022/02/16 01:13:17;;;;;;;3.55;2.28;;;;;;;4.40;90.48;99204.06;8329958;35;20302;-73
2022/02/16 01:18:20;;;;;;;2.63;1.88;;;;;;;4.22;90.76;99196.59;8309696;35;20146;-74
2022/02/16 01:23:29;;;;;;;2.85;2.05;;;;;;;4.23;91.04;99201.81;8329499;35;20154;-74
2022/02/16 01:28:34;;;;;;;2.08;1.83;;;;;;;4.32;90.76;99185.19;8329382;35;20217;-75
2022/02/16 01:33:40;;;;;;;2.35;2.15;;;;;;;4.42;89.75;99185.38;8309369;35;20487;-75
2022/02/16 01:38:45;;;;;;;3.17;2.10;;;;;;;4.62;89.10;99165.25;8307906;35;20153;-75
2022/02/16 01:43:55;;;;;;;2.60;1.73;;;;;;;4.39;90.35;99149.22;8329213;35;20153;-75
2022/02/16 01:48:58;;;;;;;2.28;1.83;;;;;;;4.31;89.85;99158.72;8329247;35;20158;-75
2022/02/16 01:54:09;;;;;;;2.65;2.45;;;;;;;4.35;90.48;99160.19;8329185;35;20158;-74
2022/02/16 01:59:17;;;;;;;1.17;1.17;;;;;;;4.28;90.54;99153.63;8328827;35;20149;-75
2022/02/16 02:04:43;;;;;;;1.52;1.42;;;;;;;4.21;90.70;99133.78;8307797;35;20150;-74
2022/02/16 02:09:50;;;;;;;1.50;1.40;;;;;;;4.70;89.21;99122.09;8329037;35;20167;-75
2022/02/16 02:14:54;;;;;;;2.70;1.70;;;;;;;4.57;89.54;99114.19;8328707;35;20249;-75
2022/02/16 02:20:22;;;;;;;1.50;1.40;;;;;;;4.66;89.46;99115.31;8328281;35;20180;-75
2022/02/16 02:25:26;;;;;;;2.47;1.55;;;;;;;4.57;89.81;99106.22;8328320;35;20154;-73
2022/02/16 02:30:29;;;;;;;1.98;1.30;;;;;;;4.62;89.02;99082.78;8306553;35;20184;-75
2022/02/16 02:35:35;;;;;;;2.88;1.45;;;;;;;4.73;90.00;99063.34;8328240;35;20150;-73
2022/02/16 02:40:38;;;;;;;1.70;1.52;;;;;;;4.82;89.26;99060.78;8328219;35;20162;-73
2022/02/16 02:45:42;;;;;;;1.67;1.58;;;;;;;4.84;89.35;99055.38;8328483;35;20157;-75
2022/02/16 02:50:46;;;;;;;1.90;1.80;;;;;;;4.87;89.06;99067.59;8307385;35;20253;-75
2022/02/16 02:55:50;;;;;;;1.60;1.40;;;;;;;4.78;89.80;99048.72;8327621;35;20154;-74
2022/02/16 03:00:53;;;;;;;1.55;1.45;;;;;;;4.90;89.50;99035.41;8307433;35;20249;-73
2022/02/16 03:05:58;;;;;;;1.45;1.35;;;;;;;5.02;89.16;99015.84;8327792;35;20154;-73
2022/02/16 03:11:01;;;;;;;1.27;1.17;;;;;;;4.92;88.88;99021.03;8327461;35;20160;-75
2022/02/16 03:16:05;;;;;;;1.63;1.52;;;;;;;4.92;88.93;99025.50;8327546;35;20596;-73
2022/02/16 03:21:12;;;;;;;1.33;1.23;;;;;;;5.05;89.22;99000.47;8327044;35;20150;-75
2022/02/16 03:26:15;;;;;;;1.48;1.38;;;;;;;5.00;88.68;99000.00;8327352;35;20157;-75
2022/02/16 03:31:18;;;;;;;1.52;1.42;;;;;;;5.16;88.42;98996.13;8327235;35;20206;-75
2022/02/16 03:36:26;;;;;;;2.90;1.42;;;;;;;5.21;87.82;98983.25;8327306;35;20153;-75
2022/02/16 03:41:29;;;;;;;1.05;1.05;;;;;;;5.14;88.30;98976.75;8326974;35;20283;-75
2022/02/16 03:46:34;;;;;;;1.38;1.27;;;;;;;5.18;87.83;98978.19;8305412;35;20162;-75
2022/02/16 03:51:39;;;;;;;1.70;1.58;;;;;;;5.21;88.34;98951.31;8305000;35;20154;-75
2022/02/16 03:56:43;;;;;;;0.95;0.95;;;;;;;5.19;88.41;98948.78;8306132;35;20174;-75
2022/02/16 04:01:46;;;;;;;1.35;1.25;;;;;;;5.26;88.43;98949.97;8326521;35;20415;-74
2022/02/16 04:06:51;;;;;;;1.35;1.25;;;;;;;5.14;89.30;98940.34;8310301;35;20157;-74
2022/02/16 04:11:54;;;;;;;1.20;1.20;;;;;;;5.17;89.57;98940.06;8331056;35;20162;-75
2022/02/16 04:16:57;;;;;;;2.08;1.30;;;;;;;5.17;89.17;98940.06;8331129;35;20182;-75
2022/02/16 04:22:01;;;;;;;1.42;1.33;;;;;;;5.26;89.59;98918.03;8330765;35;20257;-75
2022/02/16 04:27:04;;;;;;;1.25;1.05;;;;;;;5.15;89.50;98923.38;8330856;35;20158;-75
2022/02/16 04:32:09;;;;;;;1.23;1.13;;;;;;;5.00;91.19;98908.69;8309836;35;20549;-75
2022/02/16 04:37:14;;;;;;;1.63;1.52;;;;;;;5.06;90.69;98901.03;8310292;35;21051;-75
2022/02/16 04:42:17;;;;;;;1.98;1.30;;;;;;;5.10;89.98;98882.16;8331966;35;20321;-75
2022/02/16 04:47:21;;;;;;;1.95;1.45;;;;;;;5.23;90.33;98874.84;8345216;35;20190;-75
2022/02/16 04:52:34;;;;;;;1.00;1.00;;;;;;;4.99;90.38;98870.59;8315366;35;20143;-75
2022/02/16 04:57:46;;;;;;;1.10;1.00;;;;;;;5.19;90.37;98855.63;8330678;35;20154;-76
2022/02/16 05:02:49;;;;;;;1.85;1.67;;;;;;;5.27;90.46;98821.22;8309171;35;20719;-75
2022/02/16 05:07:54;;;;;;;1.27;1.17;;;;;;;5.31;89.98;98832.44;8329824;35;20158;-74
2022/02/16 05:12:57;;;;;;;1.58;1.20;;;;;;;5.25;90.47;98844.47;8329363;35;20279;-74
2022/02/16 05:18:00;;;;;;;1.10;1.10;;;;;;;5.21;90.86;98828.84;8328393;35;20154;-74
2022/02/16 05:23:23;;;;;;;1.83;1.65;;;;;;;5.50;89.73;98797.97;8308962;35;20158;-75
2022/02/16 05:28:33;;;;;;;1.58;1.42;;;;;;;5.61;89.76;98802.38;8329037;35;20163;-74
2022/02/16 05:33:37;;;;;;;1.48;1.38;;;;;;;5.63;89.56;98767.63;8307908;35;20146;-74
2022/02/16 05:38:45;;;;;;;1.10;1.00;;;;;;;5.39;90.49;98765.25;8328930;35;20561;-73
2022/02/16 05:43:49;;;;;;;1.30;1.20;;;;;;;5.49;90.25;98743.03;8329812;35;20182;-74
2022/02/16 05:48:54;;;;;;;2.20;1.65;;;;;;;5.51;90.20;98740.22;8307920;35;20161;-73
2022/02/16 05:53:58;;;;;;;1.40;1.30;;;;;;;5.68;89.61;98718.31;8329127;35;21013;-74
2022/02/16 05:59:02;;;;;;;0.75;0.75;;;;;;;5.80;89.22;98711.06;8328146;35;20166;-76
2022/02/16 06:04:05;;;;;;;0.40;0.40;;;;;;;5.64;90.35;98716.03;8328743;35;20458;-74
2022/02/16 06:09:12;;;;;;;0.40;0.40;;;;;;;5.71;89.74;98698.53;8328701;35;20159;-75
2022/02/16 06:14:18;;;;;;;0.80;0.80;;;;;;;5.59;90.61;98684.47;8307196;35;20293;-75
2022/02/16 06:19:26;;;;;;;0.45;0.45;;;;;;;5.69;89.74;98685.34;8328229;35;20198;-76
2022/02/16 06:24:32;;;;;;;0.40;0.40;;;;;;;5.52;90.22;98703.78;8331160;29;20150;-75
2022/02/16 06:29:35;;;;;;;0.40;0.40;;;;;;;5.54;90.52;98702.69;8222679;35;20772;-75
2022/02/16 06:34:47;;;;;;;0.50;0.50;;;;;;;5.67;89.54;98681.13;8203704;35;20208;-76
2022/02/16 06:39:53;;;;;;;0.50;0.50;;;;;;;5.87;88.51;98664.25;8203497;35;20148;-74
2022/02/16 06:44:58;;;;;;;0.60;0.60;;;;;;;5.63;89.14;98653.09;8202142;35;20304;-75
2022/02/16 06:50:11;;;;;;;0.50;0.50;;;;;;;5.93;88.05;98642.38;8201984;35;20679;-76
2022/02/16 06:55:20;;;;;;;0.40;0.40;;;;;;;5.79;88.41;98637.44;8181587;35;20159;-74
2022/02/16 07:00:27;;;;;;;0.45;0.45;;;;;;;5.96;88.02;98641.25;8180740;35;20162;-75
2022/02/16 07:05:31;;;;;;;0.40;0.40;;;;;;;6.02;88.08;98619.38;8181303;35;20192;-74
2022/02/16 07:10:39;;;;;;;0.40;0.40;;;;;;;6.17;86.60;98610.00;8201603;35;20760;-74
2022/02/16 07:15:42;;;;;;;0.40;0.40;;;;;;;6.18;86.18;98600.19;8181158;35;20456;-74
2022/02/16 07:20:47;;;;;;;0.40;0.40;;;;;;;6.45;84.86;98607.47;8180596;35;20247;-75
2022/02/16 07:25:55;;;;;;;0.40;0.40;;;;;;;6.29;85.46;98577.88;8180905;35;20184;-75
2022/02/16 07:31:05;;;;;;;0.40;0.40;;;;;;;6.13;86.64;98575.75;8181144;35;20163;-74
2022/02/16 07:36:08;;;;;;;0.50;0.50;;;;;;;6.13;87.93;98552.59;8201172;35;20156;-74
2022/02/16 07:41:15;;;;;;;0.47;0.47;;;;;;;6.33;87.45;98542.75;8204399;35;20645;-75
2022/02/16 07:46:36;;;;;;;0.50;0.50;;;;;;;6.17;87.65;98538.03;8185281;35;20159;-75
2022/02/16 07:51:39;;;;;;;0.40;0.40;;;;;;;6.28;87.39;98509.50;8184773;35;20195;-74
2022/02/16 07:56:55;;;;;;;0.50;0.50;;;;;;;6.37;86.76;98504.16;8185903;35;20184;-75
2022/02/16 08:01:59;;;;;;;0.40;0.40;;;;;;;6.25;87.12;98502.63;8217609;35;20160;-75
2022/02/16 08:07:04;;;;;;;0.68;0.68;;;;;;;6.75;86.31;98469.53;8206443;35;20232;-75
2022/02/16 08:12:12;;;;;;;0.40;0.40;;;;;;;6.51;86.92;98462.03;8226445;35;20152;-75
2022/02/16 08:17:15;;;;;;;0.50;0.50;;;;;;;6.37;87.20;98525.50;8207727;35;20457;-75
2022/02/16 08:22:18;;;;;;;0.40;0.40;;;;;;;6.40;87.20;98463.88;8208216;35;20542;-75
2022/02/16 08:27:23;;;;;;;0.40;0.40;;;;;;;6.68;87.30;98505.78;8204312;35;20182;-74
2022/02/16 08:32:32;;;;;;;0.50;0.50;;;;;;;6.48;88.42;98467.66;8193572;35;20180;-75
2022/02/16 08:37:49;;;;;;;0.50;0.50;;;;;;;6.59;88.22;98448.81;8192321;35;20239;-75
2022/02/16 08:42:53;;;;;;;0.40;0.40;;;;;;;6.43;89.22;98445.91;8205466;35;20239;-74
2022/02/16 08:47:56;;;;;;;0.50;0.50;;;;;;;6.43;89.66;98441.41;8204755;35;20152;-75
2022/02/16 08:52:59;;;;;;;0.40;0.40;;;;;;;6.59;89.71;98452.31;8204119;35;20271;-75
2022/02/16 08:58:04;;;;;;;0.50;0.50;;;;;;;6.47;90.69;98445.47;8192876;35;20209;-74
2022/02/16 09:03:07;;;;;;;0.40;0.40;;;;;;;6.55;91.86;98432.22;8203987;35;20191;-75
2022/02/16 09:08:10;;;;;;;0.40;0.40;;;;;;;6.56;92.39;98447.28;8204563;35;20580;-76
2022/02/16 09:13:15;;;;;;;0.40;0.40;;;;;;;6.70;92.42;98418.44;8204266;35;20477;-76
2022/02/16 09:18:18;;;;;;;1.08;1.08;;;;;;;6.62;92.24;98412.00;8204408;35;20401;-76
2022/02/16 09:23:21;;;;;;;0.50;0.50;;;;;;;6.48;92.11;98454.31;8204765;35;20164;-75
2022/02/16 09:28:26;;;;;;;0.40;0.40;;;;;;;6.55;92.64;98404.72;8224798;35;20556;-77
2022/02/16 09:33:30;;;;;;;0.40;0.40;;;;;;;6.74;92.63;98395.78;8204699;35;20195;-77
2022/02/16 09:38:33;;;;;;;0.50;0.50;;;;;;;6.68;92.79;98429.25;8204784;35;20248;-77
2022/02/16 09:43:38;;;;;;;0.40;0.40;;;;;;;6.89;92.74;98409.53;8204583;35;20248;-77
2022/02/16 09:48:41;;;;;;;0.52;0.52;;;;;;;6.95;92.61;98401.75;8204973;35;20180;-77
2022/02/16 09:53:45;;;;;;;0.50;0.50;;;;;;;6.68;93.97;98394.56;8205380;35;20199;-76
2022/02/16 09:58:50;;;;;;;0.45;0.45;;;;;;;6.98;93.30;98396.13;8204254;35;20186;-76
2022/02/16 10:04:01;;;;;;;0.40;0.40;;;;;;;6.93;94.29;98400.22;8203411;35;20164;-77
2022/02/16 10:09:06;;;;;;;1.20;1.10;;;;;;;7.11;93.60;98406.44;8200874;35;20301;-76
2022/02/16 10:14:20;;;;;;;1.35;1.25;;;;;;;7.19;93.85;98419.03;8204338;35;20574;-76
2022/02/16 10:19:24;;;;;;;1.50;1.40;;;;;;;7.20;94.45;98428.72;8202602;35;20156;-77
2022/02/16 10:24:27;;;;;;;2.05;1.88;;;;;;;7.06;94.65;98403.38;8203195;35;20160;-76
2022/02/16 10:29:34;;;;;;;2.70;1.83;;;;;;;7.22;94.37;98434.75;8202497;35;20694;-77
2022/02/16 10:34:49;;;;;;;2.63;1.77;;;;;;;7.24;95.24;98404.25;8188932;35;20231;-75
2022/02/16 10:40:11;;;;;;;2.50;2.30;;;;;;;7.16;96.03;98401.50;8198511;35;20311;-76
2022/02/16 10:45:15;;;;;;;1.92;1.73;;;;;;;7.41;95.10;98380.38;8204503;35;20167;-75
2022/02/16 10:50:19;;;;;;;1.38;1.27;;;;;;;7.30;96.23;98397.47;8204751;35;21062;-76
2022/02/16 10:55:45;;;;;;;3.72;2.72;;;;;;;7.55;95.01;98403.88;8207568;35;20183;-77
2022/02/16 11:00:55;;;;;;;3.20;2.38;;;;;;;7.43;95.16;98421.97;8206117;35;20457;-77
2022/02/16 11:06:00;;;;;;;3.00;2.42;;;;;;;7.65;94.15;98388.59;8205569;35;20151;-76
2022/02/16 11:11:04;;;;;;;4.43;2.90;;;;;;;7.60;95.38;98388.22;8207576;35;20202;-77
2022/02/16 11:16:09;;;;;;;5.00;3.20;;;;;;;8.00;93.86;98364.63;8208262;35;20167;-76
2022/02/16 11:21:14;;;;;;;5.85;3.60;;;;;;;7.84;94.71;98368.84;8206350;35;20151;-77
2022/02/16 11:26:37;;;;;;;4.55;3.70;;;;;;;7.57;95.95;98368.97;8207526;35;20536;-77
2022/02/16 11:31:41;;;;;;;3.90;3.28;;;;;;;7.81;94.88;98314.88;8204135;35;20603;-78
2022/02/16 11:36:53;;;;;;;4.80;3.72;;;;;;;8.03;94.96;98329.56;8204118;35;20472;-77
2022/02/16 11:41:57;;;;;;;4.25;2.75;;;;;;;7.99;95.34;98322.84;8203757;35;20231;-76
2022/02/16 11:47:05;;;;;;;6.53;4.63;;;;;;;8.13;95.22;98328.44;8222131;35;20153;-76
2022/02/16 11:52:34;;;;;;;6.93;3.92;;;;;;;8.20;94.58;98333.16;8201934;35;20609;-76
2022/02/16 11:57:43;;;;;;;6.88;4.45;;;;;;;8.33;95.00;98321.03;8201383;35;20160;-75
2022/02/16 12:03:17;;;;;;;8.90;5.28;;;;;;;8.53;94.24;98308.28;8200738;35;20152;-76
2022/02/16 12:08:24;;;;;;;6.43;4.18;;;;;;;8.48;94.96;98267.78;8201504;35;20221;-76
2022/02/16 12:13:32;;;;;;;6.47;4.32;;;;;;;8.42;95.75;98299.66;8201756;35;20296;-76
2022/02/16 12:18:38;;;;;;;7.15;4.82;;;;;;;8.45;95.99;98283.28;8201360;35;20478;-76
2022/02/16 12:23:45;;;;;;;7.80;5.72;;;;;;;8.48;95.72;98313.28;8201632;35;20807;-76
2022/02/16 12:28:58;;;;;;;7.40;5.07;;;;;;;8.56;96.57;98340.06;8347066;29;20160;-76
2022/02/16 12:34:08;;;;;;;7.22;5.20;;;;;;;8.45;97.27;98336.78;8363133;34;21140;-76
2022/02/16 12:39:12;;;;;;;6.55;4.75;;;;;;;8.45;97.15;98340.31;8347691;34;20678;-76
2022/02/16 12:44:17;;;;;;;8.38;5.82;;;;;;;8.71;96.16;98352.81;8318937;35;20516;-76
2022/02/16 12:49:24;;;;;;;7.10;4.22;;;;;;;8.69;96.85;98336.91;8333189;35;20248;-77
2022/02/16 12:54:29;;;;;;;9.48;4.80;;;;;;;8.54;97.94;98344.72;8357701;35;20248;-76
2022/02/16 12:59:37;;;;;;;9.40;4.78;;;;;;;8.63;97.61;98307.28;8360248;34;20153;-76
2022/02/16 13:04:51;;;;;;;8.52;5.30;;;;;;;8.73;97.22;98294.63;8360777;35;20297;-77
2022/02/16 13:09:54;;;;;;;7.18;4.43;;;;;;;8.76;97.13;98300.47;8358947;35;20809;-76
2022/02/16 13:15:03;;;;;;;10.45;5.85;;;;;;;8.91;96.68;98334.63;8361853;35;20154;-76
2022/02/16 13:20:16;;;;;;;8.55;5.47;;;;;;;8.90;96.92;98307.03;8356849;35;20195;-76
2022/02/16 13:25:26;;;;;;;8.35;5.65;;;;;;;8.85;96.87;98295.97;8359365;34;20145;-76
2022/02/16 13:30:32;;;;;;;9.55;6.53;;;;;;;9.28;95.71;98310.09;8359553;35;20545;-77
2022/02/16 13:35:36;;;;;;;8.90;6.63;;;;;;;9.04;97.28;98337.69;8362618;35;20988;-76
2022/02/16 13:40:51;;;;;;;8.82;5.82;;;;;;;8.92;97.30;98337.16;8360646;35;20221;-76
2022/02/16 13:46:15;;;;;;;6.47;4.47;;;;;;;8.91;97.76;98345.34;8332262;35;20158;-76
2022/02/16 13:51:21;;;;;;;5.68;4.13;;;;;;;8.93;97.88;98346.88;8345639;34;20145;-77
2022/02/16 13:56:26;;;;;;;5.22;4.00;;;;;;;9.01;96.90;98359.44;8361181;34;20548;-76
2022/02/16 14:01:29;;;;;;;6.13;4.53;;;;;;;8.97;98.11;98342.88;8352579;35;21146;-76
2022/02/16 14:06:36;;;;;;;6.13;4.57;;;;;;;9.03;98.04;98344.06;8332659;34;20447;-76
2022/02/16 14:11:46;;;;;;;3.70;3.08;;;;;;;8.91;98.20;98348.03;8329503;35;20559;-76
2022/02/16 14:16:49;;;;;;;4.63;3.08;;;;;;;9.26;96.84;98328.19;8333600;34;20232;-76
2022/02/16 14:21:59;;;;;;;4.30;2.85;;;;;;;8.98;97.78;98338.34;8351361;34;20154;-76
2022/02/16 14:27:07;;;;;;;6.13;5.30;;;;;;;9.13;97.33;98317.09;8331565;35;20146;-76
2022/02/16 14:32:11;;;;;;;6.03;4.43;;;;;;;9.31;95.98;98351.78;8308057;35;20639;-76
2022/02/16 14:37:16;;;;;;;7.50;5.60;;;;;;;9.08;97.51;98376.53;8278071;35;20226;-76
2022/02/16 14:42:20;;;;;;;7.07;4.20;;;;;;;9.16;95.93;98387.28;8275683;35;20153;-76
2022/02/16 14:47:24;;;;;;;4.70;3.90;;;;;;;9.35;96.12;98396.88;8273297;35;20241;-76
2022/02/16 14:52:29;;;;;;;6.93;4.43;;;;;;;9.24;95.81;98359.63;8274623;35;20998;-77
2022/02/16 14:57:33;;;;;;;5.18;3.60;;;;;;;9.40;93.98;98358.84;8302702;35;20193;-76
2022/02/16 15:02:37;;;;;;;5.88;3.78;;;;;;;9.38;92.72;98328.69;8287474;35;20536;-74
2022/02/16 15:07:41;;;;;;;3.92;3.33;;;;;;;9.56;92.38;98336.56;8291171;35;20233;-75
2022/02/16 15:12:44;;;;;;;4.47;2.40;;;;;;;9.55;91.64;98342.94;8279152;35;20879;-77
2022/02/16 15:17:47;;;;;;;6.78;4.65;;;;;;;9.68;90.96;98345.94;8277343;35;20153;-76
2022/02/16 15:22:52;;;;;;;6.15;5.40;;;;;;;9.79;90.51;98331.34;8276866;35;20880;-75
2022/02/16 15:27:56;;;;;;;6.63;4.70;;;;;;;9.73;90.27;98357.00;8273372;35;20200;-77
2022/02/16 15:33:07;;;;;;;6.05;4.13;;;;;;;9.54;90.62;98360.84;8275356;35;20154;-75
2022/02/16 15:38:12;;;;;;;10.60;6.13;;;;;;;9.85;89.83;98330.69;8280274;35;20676;-75
2022/02/16 15:43:15;;;;;;;8.38;5.47;;;;;;;9.74;89.18;98315.78;8305921;35;20220;-76
2022/02/16 15:48:18;;;;;;;9.18;7.05;;;;;;;9.76;89.56;98320.97;8302724;35;20863;-75
2022/02/16 15:53:23;;;;;;;7.93;5.15;;;;;;;9.76;88.48;98308.41;8300217;35;20346;-75
2022/02/16 15:58:26;;;;;;;12.32;8.18;;;;;;;9.71;89.48;98279.44;8306003;35;20755;-76
2022/02/16 16:03:29;;;;;;;7.65;5.93;;;;;;;9.67;88.65;98275.41;8304030;34;20691;-77
2022/02/16 16:08:33;;;;;;;9.93;6.82;;;;;;;9.73;88.24;98298.03;8320237;34;20308;-74
2022/02/16 16:13:39;;;;;;;10.05;7.05;;;;;;;9.59;88.04;98280.78;8333640;34;21665;-75
2022/02/16 16:18:43;;;;;;;12.57;7.88;;;;;;;9.55;88.29;98292.03;8334041;34;20285;-76
2022/02/16 16:23:47;;;;;;;12.90;8.32;;;;;;;9.71;87.73;98303.56;8334078;34;20154;-74
2022/02/16 16:28:51;;;;;;;12.57;6.53;;;;;;;9.59;88.21;98274.59;8326839;34;20749;-76
2022/02/16 16:33:54;;;;;;;10.52;6.80;;;;;;;9.72;87.52;98253.47;8276585;35;20568;-75
2022/02/16 16:39:00;;;;;;;10.30;6.63;;;;;;;9.62;87.51;98283.13;8277476;35;20280;-75
2022/02/16 16:44:05;;;;;;;18.15;6.47;;;;;;;9.54;86.82;98239.41;8332675;34;20248;-76
2022/02/16 16:49:08;;;;;;;15.50;6.90;;;;;;;9.61;85.74;98227.03;8332092;34;20229;-76
2022/02/16 16:54:16;;;;;;;16.63;6.22;;;;;;;9.75;84.38;98188.78;8334231;34;20235;-75
2022/02/16 16:59:20;;;;;;;10.43;5.47;;;;;;;9.74;84.11;98189.78;8340943;34;20169;-77
2022/02/16 17:04:23;;;;;;;8.93;4.47;;;;;;;9.66;84.07;98222.81;8338321;34;20636;-76
2022/02/16 17:09:27;;;;;;;16.20;7.68;;;;;;;9.84;83.96;98221.75;8353317;34;20223;-76
2022/02/16 17:14:30;;;;;;;11.65;7.10;;;;;;;9.92;83.69;98158.22;8394147;34;20215;-76
2022/02/16 17:19:33;;;;;;;13.73;6.15;;;;;;;9.81;84.17;98157.75;8400000;34;20530;-76
2022/02/16 17:24:38;;;;;;;15.77;5.55;;;;;;;9.29;86.74;98159.06;8358147;34;21145;-77
2022/02/16 17:29:41;;;;;;;12.00;5.72;;;;;;;9.38;86.00;98142.00;8361624;34;20201;-76
2022/02/16 17:34:45;;;;;;;20.17;5.80;;;;;;;9.26;86.34;98130.78;8345603;34;20153;-76
2022/02/16 17:39:49;;;;;;;12.50;5.38;;;;;;;9.13;87.28;98137.66;8217541;34;20268;-77
2022/02/16 17:44:57;;;;;;;18.27;5.40;;;;;;;9.30;85.52;98147.38;8181578;34;20479;-76
2022/02/16 17:50:00;;;;;;;13.38;4.78;;;;;;;9.10;88.79;98154.06;8183867;34;20150;-76
2022/02/16 17:55:06;;;;;;;13.98;5.93;;;;;;;8.81;91.42;98124.16;8149729;35;20139;-75
2022/02/16 18:00:30;;;;;;;15.82;4.45;;;;;;;8.63;92.30;98109.25;8128238;35;20151;-75
2022/02/16 18:05:40;;;;;;;15.50;5.07;;;;;;;8.36;93.13;98073.78;8124835;35;20189;-75
2022/02/16 18:10:44;;;;;;;13.48;4.35;;;;;;;8.63;91.89;98085.19;8124320;35;20249;-75
2022/02/16 18:15:47;;;;;;;12.88;4.57;;;;;;;8.64;92.73;98068.13;8122454;35;20439;-75
2022/02/16 18:20:52;;;;;;;13.15;3.72;;;;;;;8.50;93.13;98038.38;8113704;35;20448;-76
2022/02/16 18:25:57;;;;;;;17.77;6.07;;;;;;;8.62;93.75;98017.47;8118759;35;20534;-75
2022/02/16 18:31:00;;;;;;;15.10;5.70;;;;;;;8.79;93.33;97992.31;8114050;35;20578;-75
2022/02/16 18:36:03;;;;;;;8.90;4.22;;;;;;;8.53;93.59;98026.47;8108053;35;20138;-75
2022/02/16 18:41:10;;;;;;;15.48;4.82;;;;;;;8.55;93.44;97973.63;8106874;35;20193;-76
2022/02/16 18:46:13;;;;;;;9.10;3.58;;;;;;;8.73;92.85;97944.00;8108650;35;20291;-75
2022/02/16 18:51:17;;;;;;;16.80;6.10;;;;;;;8.53;92.97;97955.09;8106675;35;20540;-75
2022/02/16 18:56:23;;;;;;;10.63;4.20;;;;;;;8.87;91.89;97929.91;8106539;35;20237;-76
2022/02/16 19:01:37;;;;;;;11.32;5.07;;;;;;;8.61;93.62;97946.19;8107529;35;20568;-76
2022/02/16 19:06:40;;;;;;;14.98;6.20;;;;;;;8.56;95.17;97914.63;8116015;35;20159;-75
2022/02/16 19:11:45;;;;;;;10.73;5.13;;;;;;;8.81;94.93;97895.81;8109300;35;20266;-75
2022/02/16 19:16:49;;;;;;;7.10;3.95;;;;;;;8.55;96.22;97877.31;8110383;35;20437;-75
2022/02/16 19:21:54;;;;;;;8.00;3.17;;;;;;;8.59;96.76;97874.13;8109044;35;20199;-75
2022/02/16 19:26:59;;;;;;;8.10;3.70;;;;;;;8.72;96.85;97878.94;8108408;35;20438;-76
2022/02/16 19:32:02;;;;;;;4.68;2.88;;;;;;;8.88;96.93;97867.31;8105079;35;20234;-74
2022/02/16 19:37:05;;;;;;;5.40;3.42;;;;;;;8.88;97.13;97824.47;8111255;35;20621;-74
2022/02/16 19:42:10;;;;;;;9.43;3.63;;;;;;;8.94;97.34;97829.16;8110287;35;20291;-75
2022/02/16 19:47:13;;;;;;;6.25;3.45;;;;;;;9.03;98.92;97803.16;8110761;35;20437;-75
2022/02/16 19:52:16;;;;;;;5.07;3.38;;;;;;;8.81;98.96;97796.78;8111496;35;20617;-77
2022/02/16 19:57:21;;;;;;;6.95;3.13;;;;;;;9.04;98.46;97786.06;8112088;35;20167;-75
2022/02/16 20:02:24;;;;;;;5.18;3.58;;;;;;;9.23;98.18;97766.84;8169297;34;20439;-75
2022/02/16 20:07:27;;;;;;;5.28;3.08;;;;;;;9.18;98.82;97795.19;8216668;34;20458;-76
2022/02/16 20:12:34;;;;;;;5.47;3.25;;;;;;;9.16;98.60;97747.19;8217108;34;21011;-76
2022/02/16 20:17:39;;;;;;;2.85;2.33;;;;;;;9.45;97.41;97742.91;8218371;34;20211;-75
2022/02/16 20:22:42;;;;;;;6.25;3.10;;;;;;;9.46;97.75;97721.31;8212272;34;20210;-74
2022/02/16 20:27:47;;;;;;;3.05;2.50;;;;;;;9.42;97.82;97711.13;8208643;34;21873;-75
2022/02/16 20:32:50;;;;;;;2.75;2.53;;;;;;;9.70;97.01;97732.78;8208513;34;20164;-75
2022/02/16 20:37:53;;;;;;;5.22;4.38;;;;;;;9.48;98.04;97686.28;8213638;34;20536;-76
2022/02/16 20:42:58;;;;;;;5.05;3.58;;;;;;;9.73;97.91;97714.47;8202184;34;20446;-75
2022/02/16 20:48:01;;;;;;;5.78;4.65;;;;;;;9.77;98.12;97687.31;8214987;34;20437;-75
2022/02/16 20:53:04;;;;;;;5.75;4.82;;;;;;;9.80;98.28;97706.53;8217180;34;20437;-75
2022/02/16 20:58:09;;;;;;;5.15;4.70;;;;;;;9.86;98.95;97668.28;8211020;34;21271;-76
2022/02/16 21:03:14;;;;;;;4.28;3.83;;;;;;;9.96;98.19;97672.56;8216552;34;20204;-76
2022/02/16 21:08:19;;;;;;;6.22;5.28;;;;;;;10.06;97.99;97670.41;8219459;34;20191;-76
2022/02/16 21:13:28;;;;;;;4.97;4.05;;;;;;;10.07;98.04;97675.59;8222247;34;20535;-76
2022/02/16 21:18:32;;;;;;;5.20;4.20;;;;;;;10.02;98.12;97653.03;8196876;34;20182;-76
2022/02/16 21:23:35;;;;;;;5.50;5.00;;;;;;;10.05;98.02;97653.50;8205290;34;21130;-76
2022/02/16 21:28:40;;;;;;;6.15;5.65;;;;;;;9.90;99.28;97658.03;8201954;34;20449;-75
2022/02/16 21:34:03;;;;;;;4.97;4.57;;;;;;;9.88;99.33;97615.34;8195616;34;20796;-76
2022/02/16 21:39:06;;;;;;;5.07;4.15;;;;;;;9.91;99.29;97622.16;8214234;34;20196;-75
2022/02/16 21:44:10;;;;;;;4.40;3.78;;;;;;;9.78;100.00;97644.25;8231024;34;20157;-74
2022/02/16 21:49:14;;;;;;;3.60;3.30;;;;;;;10.03;99.72;97635.91;8228798;34;20428;-75
2022/02/16 21:54:17;;;;;;;4.70;4.30;;;;;;;9.82;100.00;97653.59;8225416;34;20319;-75
2022/02/16 21:59:22;;;;;;;4.03;3.63;;;;;;;10.08;99.76;97617.41;8196767;34;20855;-75
2022/02/16 22:04:25;;;;;;;5.32;4.90;;;;;;;10.14;99.51;97625.53;8184584;34;20424;-75
2022/02/16 22:09:28;;;;;;;4.25;3.95;;;;;;;9.97;99.75;97625.94;8196017;34;20564;-75
2022/02/16 22:14:33;;;;;;;4.90;4.50;;;;;;;10.33;99.12;97607.16;8188432;34;21977;-75
2022/02/16 22:19:36;;;;;;;3.47;3.17;;;;;;;10.02;99.42;97535.88;8212204;34;20296;-75
2022/02/16 22:24:39;;;;;;;3.28;3.03;;;;;;;9.93;100.00;97564.66;8160844;34;21971;-75
2022/02/16 22:29:43;;;;;;;4.13;3.72;;;;;;;9.72;100.00;97535.91;8160202;35;20209;-75
2022/02/16 22:34:47;;;;;;;2.92;2.53;;;;;;;9.76;100.00;97547.09;8162776;35;21515;-74
2022/02/16 22:39:50;;;;;;;3.95;3.58;;;;;;;9.69;100.00;97557.75;8159959;35;20188;-74
2022/02/16 22:44:54;;;;;;;1.65;1.15;;;;;;;9.46;100.00;97603.41;8159745;35;20229;-75
2022/02/16 22:50:00;;;;;;;0.43;0.43;;;;;;;8.73;100.00;97575.53;8169387;34;20143;-75
2022/02/16 22:55:04;;;;;;;2.35;1.30;;;;;;;8.55;100.00;97577.69;8196871;34;20180;-75
2022/02/16 23:00:36;;;;;;;0.40;0.40;;;;;;;8.78;100.00;97557.09;8214012;34;21830;-76
2022/02/16 23:11:02;;;;;;;1.48;1.27;;;;;;;8.66;100.00;97598.66;8210880;34;20667;-75
2022/02/16 23:16:08;;;;;;;1.50;1.40;;;;;;;8.53;100.00;97574.34;8209147;34;20446;-75
2022/02/16 23:21:12;;;;;;;0.75;0.75;;;;;;;8.46;100.00;97594.81;8212565;34;20461;-76
2022/02/16 23:26:15;;;;;;;0.40;0.40;;;;;;;8.70;100.00;97618.72;8212863;34;20441;-75
2022/02/16 23:31:21;;;;;;;0.40;0.40;;;;;;;8.87;100.00;97635.47;8208920;35;20437;-75
2022/02/16 23:36:25;;;;;;;4.03;1.48;;;;;;;8.52;100.00;97618.16;8210612;34;20192;-76
2022/02/16 23:41:31;;;;;;;3.10;1.60;;;;;;;8.44;100.00;97619.03;8212540;35;20912;-75
2022/02/16 23:46:35;;;;;;;2.53;1.70;;;;;;;8.68;100.00;97636.78;8216969;34;20207;-76
2022/02/16 23:51:38;;;;;;;3.47;1.63;;;;;;;8.95;100.00;97632.72;8218652;35;20324;-75
2022/02/16 23:56:42;;;;;;;3.05;1.35;;;;;;;8.99;99.69;97634.00;8228499;34;20181;-76
